createdAt,value
2023-03-17T00:00:19.616Z,97137.75
2023-03-17T00:02:49.441Z,97139.97
2023-03-17T00:05:18.515Z,97127.00
2023-03-17T00:07:46.692Z,97141.44
2023-03-17T00:10:15.332Z,97130.38
2023-03-17T00:12:42.560Z,97136.00
2023-03-17T00:15:10.234Z,97132.31
2023-03-17T00:17:37.158Z,97129.03
2023-03-17T00:20:06.704Z,97122.34
2023-03-17T00:22:33.567Z,97131.81
2023-03-17T00:25:00.625Z,97127.56
2023-03-17T00:27:28.308Z,97133.91
2023-03-17T00:29:55.174Z,97139.59
2023-03-17T00:32:22.473Z,97122.28
2023-03-17T00:34:52.102Z,97130.53
2023-03-17T00:37:20.139Z,97139.16
2023-03-17T00:39:47.137Z,97124.50
2023-03-17T00:42:14.047Z,97132.78
2023-03-17T00:44:41.615Z,97120.88
2023-03-17T00:47:10.870Z,97137.06
2023-03-17T00:49:37.865Z,97119.78
2023-03-17T00:52:05.085Z,97114.88
2023-03-17T00:54:31.976Z,97125.97
2023-03-17T00:56:59.870Z,97133.06
2023-03-17T00:59:30.615Z,97130.66
2023-03-17T01:01:58.043Z,97143.53
2023-03-17T01:04:25.628Z,97130.66
2023-03-17T01:06:53.123Z,97128.78
2023-03-17T01:09:23.225Z,97144.75
2023-03-17T01:11:50.842Z,97131.34
2023-03-17T01:14:17.988Z,97158.91
2023-03-17T01:16:45.145Z,97127.53
2023-03-17T01:19:13.678Z,97132.47
2023-03-17T01:21:41.675Z,97136.63
2023-03-17T01:24:09.634Z,97122.22
2023-03-17T01:26:36.957Z,97137.59
2023-03-17T01:29:04.961Z,97136.94
2023-03-17T01:31:32.000Z,97125.72
2023-03-17T01:33:58.929Z,97136.59
2023-03-17T01:36:26.194Z,97127.72
2023-03-17T01:38:53.772Z,97137.03
2023-03-17T01:41:21.173Z,97141.75
2023-03-17T01:43:48.170Z,97139.72
2023-03-17T01:46:25.453Z,97148.19
2023-03-17T01:49:14.662Z,97153.25
2023-03-17T01:51:58.966Z,97149.13
2023-03-17T01:54:50.498Z,97142.53
2023-03-17T01:57:29.678Z,97149.34
2023-03-17T01:59:58.780Z,97154.22
2023-03-17T02:02:34.644Z,97150.78
2023-03-17T02:05:03.869Z,97160.50
2023-03-17T02:07:31.435Z,97150.28
2023-03-17T02:09:59.025Z,97163.88
2023-03-17T02:12:29.019Z,97180.03
2023-03-17T02:14:57.404Z,97167.47
2023-03-17T02:17:44.211Z,97198.78
2023-03-17T02:20:17.249Z,97201.59
2023-03-17T02:22:47.272Z,97198.28
2023-03-17T02:25:16.165Z,97196.53
2023-03-17T02:27:46.611Z,97162.13
2023-03-17T02:30:19.882Z,97175.66
2023-03-17T02:32:47.408Z,97181.81
2023-03-17T02:35:15.529Z,97174.78
2023-03-17T02:37:43.824Z,97192.13
2023-03-17T02:40:11.424Z,97203.03
2023-03-17T02:42:39.480Z,97208.91
2023-03-17T02:45:09.133Z,97199.41
2023-03-17T02:47:36.211Z,97230.31
2023-03-17T02:50:04.905Z,97188.47
2023-03-17T02:52:32.174Z,97217.38
2023-03-17T02:54:59.161Z,97204.28
2023-03-17T02:57:26.654Z,97207.56
2023-03-17T02:59:53.524Z,97225.88
2023-03-17T03:02:20.518Z,97205.81
2023-03-17T03:04:47.805Z,97218.31
2023-03-17T03:07:14.687Z,97218.66
2023-03-17T03:09:42.134Z,97188.09
2023-03-17T03:12:10.134Z,97254.78
2023-03-17T03:14:37.572Z,97197.41
2023-03-17T03:17:04.564Z,97202.75
2023-03-17T03:19:31.524Z,97204.84
2023-03-17T03:21:58.448Z,97214.16
2023-03-17T03:24:25.312Z,97234.84
2023-03-17T03:26:52.258Z,97206.44
2023-03-17T03:29:19.216Z,97232.94
2023-03-17T03:31:48.185Z,97193.34
2023-03-17T03:34:16.454Z,97218.94
2023-03-17T03:36:43.548Z,97222.97
2023-03-17T03:39:13.108Z,97223.84
2023-03-17T03:41:41.312Z,97225.34
2023-03-17T03:44:08.246Z,97224.31
2023-03-17T03:46:35.336Z,97241.63
2023-03-17T03:49:02.428Z,97253.84
2023-03-17T03:51:29.338Z,97228.91
2023-03-17T03:53:56.208Z,97247.19
2023-03-17T03:56:23.085Z,97230.53
2023-03-17T03:58:51.285Z,97234.50
2023-03-17T04:01:18.618Z,97264.03
2023-03-17T04:03:47.409Z,97279.38
2023-03-17T04:06:14.745Z,97229.25
2023-03-17T04:08:41.920Z,97237.44
2023-03-17T04:11:08.946Z,97237.97
2023-03-17T04:13:36.079Z,97239.53
2023-03-17T04:16:03.364Z,97240.38
2023-03-17T04:18:31.695Z,97235.91
2023-03-17T04:20:58.658Z,97253.84
2023-03-17T04:23:26.053Z,97257.53
2023-03-17T04:25:54.058Z,97246.53
2023-03-17T04:28:22.526Z,97259.88
2023-03-17T04:30:49.589Z,97242.53
2023-03-17T04:33:16.765Z,97267.44
2023-03-17T04:35:43.778Z,97259.25
2023-03-17T04:38:13.267Z,97272.09
2023-03-17T04:40:40.160Z,97273.03
2023-03-17T04:43:07.265Z,97263.59
2023-03-17T04:45:34.214Z,97286.75
2023-03-17T04:48:01.578Z,97279.97
2023-03-17T04:50:29.042Z,97284.06
2023-03-17T04:52:56.627Z,97299.69
2023-03-17T04:55:23.576Z,97294.59
2023-03-17T04:57:50.609Z,97270.69
2023-03-17T05:00:18.302Z,97283.50
2023-03-17T05:02:45.200Z,97279.41
2023-03-17T05:05:12.939Z,97304.84
2023-03-17T05:07:40.442Z,97286.16
2023-03-17T05:10:07.887Z,97296.59
2023-03-17T05:12:34.731Z,97315.19
2023-03-17T05:15:01.672Z,97296.22
2023-03-17T05:17:29.759Z,97305.78
2023-03-17T05:19:56.631Z,97328.16
2023-03-17T05:22:25.835Z,97343.53
2023-03-17T05:24:52.785Z,97335.78
2023-03-17T05:27:19.673Z,97316.94
2023-03-17T05:29:46.581Z,97338.75
2023-03-17T05:32:13.916Z,97337.66
2023-03-17T05:34:40.782Z,97305.28
2023-03-17T05:37:07.721Z,97328.09
2023-03-17T05:39:34.733Z,97338.31
2023-03-17T05:42:02.309Z,97341.00
2023-03-17T05:44:29.192Z,97352.59
2023-03-17T05:46:56.113Z,97369.47
2023-03-17T05:49:23.167Z,97331.41
2023-03-17T05:51:50.329Z,97328.09
2023-03-17T05:54:17.537Z,97354.38
2023-03-17T05:56:44.449Z,97363.19
2023-03-17T05:59:14.937Z,97367.69
2023-03-17T06:01:41.880Z,97364.75
2023-03-17T06:04:09.220Z,97380.31
2023-03-17T06:06:36.173Z,97386.34
2023-03-17T06:09:03.125Z,97372.16
2023-03-17T06:11:30.236Z,97335.66
2023-03-17T06:13:57.251Z,97372.00
2023-03-17T06:16:24.324Z,97374.03
2023-03-17T06:18:51.236Z,97379.59
2023-03-17T06:21:18.215Z,97386.94
2023-03-17T06:23:45.333Z,97391.88
2023-03-17T06:26:12.611Z,97395.81
2023-03-17T06:28:41.888Z,97394.91
2023-03-17T06:31:09.421Z,97378.66
2023-03-17T06:33:36.307Z,97409.94
2023-03-17T06:36:06.537Z,97411.94
2023-03-17T06:38:33.700Z,97387.19
2023-03-17T06:41:00.778Z,97405.06
2023-03-17T06:43:28.468Z,97406.06
2023-03-17T06:45:59.238Z,97419.81
2023-03-17T06:48:26.522Z,97425.72
2023-03-17T06:50:53.439Z,97421.19
2023-03-17T06:53:20.796Z,97421.44
2023-03-17T06:55:48.282Z,97407.66
2023-03-17T06:58:16.026Z,97422.97
2023-03-17T07:00:45.518Z,97455.56
2023-03-17T07:03:12.574Z,97437.56
2023-03-17T07:05:39.451Z,97435.03
2023-03-17T07:08:06.731Z,97410.91
2023-03-17T07:10:34.128Z,97425.66
2023-03-17T07:13:02.444Z,97428.22
2023-03-17T07:15:34.686Z,97426.78
2023-03-17T07:18:02.495Z,97432.75
2023-03-17T07:20:29.578Z,97438.56
2023-03-17T07:22:57.000Z,97411.66
2023-03-17T07:25:24.673Z,97432.38
2023-03-17T07:27:52.076Z,97413.06
2023-03-17T07:30:19.420Z,97436.75
2023-03-17T07:32:47.796Z,97443.94
2023-03-17T07:35:15.617Z,97440.34
2023-03-17T07:37:42.804Z,97421.97
2023-03-17T07:40:10.388Z,97439.03
2023-03-17T07:42:37.710Z,97446.84
2023-03-17T07:45:06.115Z,97426.53
2023-03-17T07:47:33.064Z,97448.09
2023-03-17T08:00:10.240Z,97427.81
2023-03-17T08:02:41.116Z,97466.22
2023-03-17T08:05:08.999Z,97445.41
2023-03-17T08:07:39.441Z,97439.19
2023-03-17T08:10:07.881Z,97451.56
2023-03-17T08:12:35.234Z,97440.06
2023-03-17T08:15:02.303Z,97406.44
2023-03-17T08:17:30.078Z,97466.22
2023-03-17T08:19:57.394Z,97437.44
2023-03-17T08:22:24.988Z,97455.22
2023-03-17T08:24:52.052Z,97449.16
2023-03-17T08:27:20.830Z,97446.31
2023-03-17T08:29:48.336Z,97458.78
2023-03-17T08:32:15.248Z,97497.63
2023-03-17T08:34:44.440Z,97470.03
2023-03-17T08:37:11.682Z,97473.84
2023-03-17T08:39:39.010Z,97500.09
2023-03-17T08:42:06.165Z,97479.66
2023-03-17T08:44:34.373Z,97496.78
2023-03-17T08:47:01.672Z,97499.09
2023-03-17T08:49:28.677Z,97494.72
2023-03-17T08:51:56.058Z,97480.22
2023-03-17T08:54:23.115Z,97451.50
2023-03-17T08:56:49.969Z,97491.78
2023-03-17T08:59:17.124Z,97501.81
2023-03-17T09:01:45.559Z,97489.69
2023-03-17T09:04:12.665Z,97484.72
2023-03-17T09:06:44.091Z,97468.84
2023-03-17T09:09:16.945Z,97474.66
2023-03-17T09:11:43.905Z,97495.31
2023-03-17T09:14:11.398Z,97487.19
2023-03-17T09:16:38.801Z,97478.00
2023-03-17T09:19:05.738Z,97509.53
2023-03-17T09:21:32.707Z,97499.41
2023-03-17T09:24:02.256Z,97489.94
2023-03-17T09:26:29.551Z,97494.72
2023-03-17T09:28:56.469Z,97502.22
2023-03-17T09:31:23.466Z,97498.59
2023-03-17T09:33:52.466Z,97495.63
2023-03-17T09:36:20.406Z,97508.66
2023-03-17T09:38:47.307Z,97497.53
2023-03-17T09:41:20.002Z,97532.19
2023-03-17T09:44:15.892Z,97510.63
2023-03-17T09:47:18.696Z,97513.50
2023-03-17T09:49:49.397Z,97504.81
2023-03-17T09:52:19.007Z,97449.53
2023-03-17T09:54:49.587Z,97516.72
2023-03-17T09:57:21.240Z,97489.66
2023-03-17T10:00:01.590Z,97488.84
2023-03-17T10:02:33.770Z,97493.84
2023-03-17T10:05:17.798Z,97492.44
2023-03-17T10:07:57.276Z,97470.59
2023-03-17T10:10:26.910Z,97488.00
2023-03-17T10:12:53.756Z,97485.06
2023-03-17T10:15:33.025Z,97487.56
2023-03-17T10:18:00.897Z,97479.91
2023-03-17T10:20:30.284Z,97489.81
2023-03-17T10:23:01.688Z,97481.47
2023-03-17T10:25:31.962Z,97465.94
2023-03-17T10:28:21.504Z,97471.72
2023-03-17T10:30:48.402Z,97468.81
2023-03-17T10:33:15.929Z,97466.81
2023-03-17T10:35:44.969Z,97465.34
2023-03-17T10:38:22.230Z,97480.88
2023-03-17T10:41:02.424Z,97455.41
2023-03-17T10:43:35.600Z,97467.84
2023-03-17T10:46:16.203Z,97455.91
2023-03-17T10:48:52.413Z,97448.09
2023-03-17T10:51:40.671Z,97452.03
2023-03-17T10:54:10.719Z,97442.00
2023-03-17T10:56:42.082Z,97474.16
2023-03-17T10:59:20.051Z,97468.69
2023-03-17T11:01:52.998Z,97451.00
2023-03-17T11:04:44.172Z,97407.13
2023-03-17T11:07:27.220Z,97447.31
2023-03-17T11:09:59.271Z,97428.13
2023-03-17T11:12:35.290Z,97443.56
2023-03-17T11:15:06.270Z,97447.69
2023-03-17T11:17:49.416Z,97447.38
2023-03-17T11:20:21.176Z,97456.53
2023-03-17T11:23:13.922Z,97468.66
2023-03-17T11:25:44.658Z,97460.13
2023-03-17T11:28:22.182Z,97456.50
2023-03-17T11:30:57.236Z,97456.31
2023-03-17T11:33:36.408Z,97456.06
2023-03-17T11:36:23.342Z,97450.44
2023-03-17T11:39:17.826Z,97474.47
2023-03-17T11:41:57.148Z,97448.22
2023-03-17T11:44:49.359Z,97456.31
2023-03-17T11:47:22.350Z,97445.00
2023-03-17T11:50:02.237Z,97436.06
2023-03-17T11:52:36.850Z,97451.22
2023-03-17T11:55:13.004Z,97451.50
2023-03-17T11:58:01.415Z,97436.25
2023-03-17T12:00:34.867Z,97429.91
2023-03-17T12:03:04.917Z,97430.56
2023-03-17T12:05:34.986Z,97429.69
2023-03-17T12:08:23.680Z,97424.91
2023-03-17T12:10:54.665Z,97439.78
2023-03-17T12:13:24.040Z,97403.16
2023-03-17T12:16:05.516Z,97419.88
2023-03-17T12:18:37.595Z,97426.78
2023-03-17T12:21:17.625Z,97430.38
2023-03-17T12:23:50.569Z,97440.91
2023-03-17T12:26:21.254Z,97421.91
2023-03-17T12:29:11.671Z,97427.84
2023-03-17T12:31:47.648Z,97424.81
2023-03-17T12:34:28.732Z,97431.19
2023-03-17T12:36:55.871Z,97440.50
2023-03-17T12:39:33.660Z,97428.38
2023-03-17T12:42:01.696Z,97435.78
2023-03-17T12:44:31.663Z,97446.59
2023-03-17T12:47:04.621Z,97443.44
2023-03-17T12:49:56.098Z,97450.63
2023-03-17T12:52:37.979Z,97445.66
2023-03-17T12:55:12.554Z,97442.41
2023-03-17T12:57:43.768Z,97435.22
2023-03-17T13:00:33.916Z,97437.53
2023-03-17T13:03:30.453Z,97443.34
2023-03-17T13:06:03.301Z,97417.00
2023-03-17T13:08:41.310Z,97452.16
2023-03-17T13:11:46.753Z,97447.72
2023-03-17T13:14:27.215Z,97467.91
2023-03-17T13:17:20.407Z,97454.91
2023-03-17T13:20:08.933Z,97424.69
2023-03-17T13:22:41.856Z,97469.47
2023-03-17T13:25:35.552Z,97475.78
2023-03-17T13:28:15.215Z,97463.00
2023-03-17T13:31:09.093Z,97472.88
2023-03-17T13:33:43.418Z,97401.63
2023-03-17T13:36:23.169Z,97480.97
2023-03-17T13:39:15.156Z,97472.81
2023-03-17T13:42:01.056Z,97473.66
2023-03-17T13:45:09.710Z,97480.25
2023-03-17T13:47:40.005Z,97451.47
2023-03-17T13:50:23.598Z,97457.81
2023-03-17T13:52:56.815Z,97449.22
2023-03-17T13:55:23.929Z,97461.09
2023-03-17T13:57:54.084Z,97457.69
2023-03-17T14:00:28.118Z,97456.44
2023-03-17T14:03:12.297Z,97440.06
2023-03-17T14:05:40.344Z,97453.88
2023-03-17T14:11:41.433Z,97461.41
2023-03-17T14:31:22.695Z,97468.97
2023-03-17T14:33:54.348Z,97472.69
2023-03-17T14:36:22.110Z,97473.00
2023-03-17T14:39:21.949Z,97487.13
2023-03-17T14:42:05.154Z,97464.50
2023-03-17T14:44:40.338Z,97462.72
2023-03-17T14:47:25.388Z,97482.56
2023-03-17T14:49:55.485Z,97474.56
2023-03-17T14:52:29.425Z,97471.41
2023-03-17T14:54:59.243Z,97477.94
2023-03-17T14:57:31.210Z,97478.28
2023-03-17T15:00:22.212Z,97473.56
2023-03-17T15:02:57.301Z,97478.59
2023-03-17T15:05:40.341Z,97473.53
2023-03-17T15:08:34.540Z,97481.84
2023-03-17T15:11:05.697Z,97471.25
2023-03-17T15:13:38.566Z,97463.22
2023-03-17T15:16:25.103Z,97471.94
2023-03-17T15:19:03.117Z,97470.00
2023-03-17T15:21:35.623Z,97482.06
2023-03-17T15:24:21.514Z,97478.88
2023-03-17T15:26:48.684Z,97477.78
2023-03-17T15:29:16.219Z,97480.63
2023-03-17T15:31:43.225Z,97473.09
2023-03-17T15:34:14.624Z,97470.34
2023-03-17T15:36:43.559Z,97466.22
2023-03-17T15:39:10.828Z,97478.50
2023-03-17T15:41:37.802Z,97468.94
2023-03-17T15:44:05.336Z,97470.34
2023-03-17T15:46:33.579Z,97476.06
2023-03-17T15:49:00.972Z,97459.38
2023-03-17T15:51:28.191Z,97482.38
2023-03-17T15:53:55.315Z,97485.97
2023-03-17T15:56:22.248Z,97472.94
2023-03-17T15:58:52.360Z,97482.28
2023-03-17T16:01:20.074Z,97478.13
2023-03-17T16:03:48.626Z,97491.94
2023-03-17T16:06:22.117Z,97488.53
2023-03-17T16:08:50.444Z,97489.44
2023-03-17T16:11:28.113Z,97493.25
2023-03-17T16:13:56.323Z,97495.38
2023-03-17T16:16:37.324Z,97490.31
2023-03-17T16:19:16.038Z,97492.91
2023-03-17T16:21:43.314Z,97498.34
2023-03-17T16:24:17.984Z,97502.13
2023-03-17T16:26:44.898Z,97497.56
2023-03-17T16:29:16.108Z,97500.22
2023-03-17T16:31:46.448Z,97500.13
2023-03-17T16:34:20.818Z,97507.25
2023-03-17T16:36:48.601Z,97508.41
2023-03-17T16:39:21.250Z,97508.50
2023-03-17T16:41:50.044Z,97515.41
2023-03-17T16:44:20.522Z,97516.22
2023-03-17T16:46:47.949Z,97502.78
2023-03-17T16:49:16.269Z,97507.72
2023-03-17T16:51:43.912Z,97504.16
2023-03-17T16:54:11.386Z,97497.81
2023-03-17T16:56:41.237Z,97506.50
2023-03-17T16:59:15.323Z,97510.91
2023-03-17T17:01:42.432Z,97517.78
2023-03-17T17:04:11.191Z,97504.53
2023-03-17T17:06:38.221Z,97510.44
2023-03-17T17:09:05.337Z,97515.88
2023-03-17T17:11:32.263Z,97520.88
2023-03-17T17:13:59.920Z,97503.88
2023-03-17T17:16:30.023Z,97504.88
2023-03-17T17:18:58.052Z,97507.50
2023-03-17T17:21:26.370Z,97504.06
2023-03-17T17:23:53.975Z,97471.75
2023-03-17T17:26:21.516Z,97508.13
2023-03-17T17:28:48.632Z,97508.03
2023-03-17T17:31:15.678Z,97500.16
2023-03-17T17:33:42.698Z,97499.50
2023-03-17T17:36:15.772Z,97502.59
2023-03-17T17:38:43.192Z,97506.97
2023-03-17T17:41:11.425Z,97503.75
2023-03-17T17:43:38.899Z,97506.97
2023-03-17T17:46:26.105Z,97505.56
2023-03-17T17:48:53.048Z,97508.75
2023-03-17T17:51:20.245Z,97483.16
2023-03-17T17:53:47.124Z,97511.88
2023-03-17T17:56:18.259Z,97507.00
2023-03-17T17:58:45.757Z,97513.41
2023-03-17T18:01:14.346Z,97506.88
2023-03-17T18:03:42.971Z,97505.97
2023-03-17T18:06:12.952Z,97515.88
2023-03-17T18:08:40.646Z,97492.09
2023-03-17T18:11:07.809Z,97510.41
2023-03-17T18:13:36.241Z,97504.72
2023-03-17T18:16:03.942Z,97500.91
2023-03-17T18:18:32.844Z,97514.78
2023-03-17T18:21:01.400Z,97508.00
2023-03-17T18:23:28.382Z,97478.34
2023-03-17T18:26:02.790Z,97497.97
2023-03-17T18:28:30.834Z,97511.63
2023-03-17T18:31:06.622Z,97494.31
2023-03-17T18:33:33.625Z,97508.75
2023-03-17T18:36:00.852Z,97507.94
2023-03-17T18:38:27.914Z,97515.72
2023-03-17T18:40:54.884Z,97517.50
2023-03-17T18:43:22.060Z,97519.31
2023-03-17T18:45:49.436Z,97522.66
2023-03-17T18:48:16.578Z,97527.75
2023-03-17T18:50:43.480Z,97528.56
2023-03-17T18:53:10.441Z,97530.22
2023-03-17T18:55:37.351Z,97529.47
2023-03-17T18:58:04.374Z,97531.03
2023-03-17T19:00:31.576Z,97533.53
2023-03-17T19:02:58.546Z,97540.25
2023-03-17T19:05:28.443Z,97538.63
2023-03-17T19:07:56.088Z,97521.53
2023-03-17T19:10:23.038Z,97525.81
2023-03-17T19:12:50.662Z,97531.97
2023-03-17T19:15:17.725Z,97509.31
2023-03-17T19:17:44.610Z,97534.50
2023-03-17T19:20:13.201Z,97537.69
2023-03-17T19:22:40.484Z,97536.88
2023-03-17T19:25:08.682Z,97528.56
2023-03-17T19:27:35.686Z,97549.09
2023-03-17T19:30:02.548Z,97543.38
2023-03-17T19:32:30.665Z,97535.38
2023-03-17T19:34:58.284Z,97529.59
2023-03-17T19:37:25.200Z,97549.13
2023-03-17T19:39:52.156Z,97537.31
2023-03-17T19:42:19.124Z,97547.34
2023-03-17T19:44:46.103Z,97547.16
2023-03-17T19:53:55.990Z,97539.75
2023-03-17T19:56:23.188Z,97530.97
2023-03-17T19:58:51.236Z,97537.69
2023-03-17T20:01:18.375Z,97529.88
2023-03-17T20:03:45.791Z,97536.31
2023-03-17T20:06:13.348Z,97532.81
2023-03-17T20:08:41.835Z,97543.84
2023-03-17T20:11:10.710Z,97532.75
2023-03-17T20:13:38.506Z,97544.66
2023-03-17T20:16:06.833Z,97537.81
2023-03-17T20:18:34.264Z,97536.00
2023-03-17T20:21:05.379Z,97531.81
2023-03-17T20:23:33.465Z,97543.72
2023-03-17T20:26:01.376Z,97540.47
2023-03-17T20:28:29.981Z,97538.84
2023-03-17T20:31:02.781Z,97536.56
2023-03-17T20:33:30.694Z,97515.66
2023-03-17T20:35:57.735Z,97537.50
2023-03-17T20:38:25.620Z,97533.53
2023-03-17T20:40:52.609Z,97530.56
2023-03-17T20:43:19.449Z,97533.06
2023-03-17T20:45:46.355Z,97538.81
2023-03-17T20:48:14.136Z,97528.25
2023-03-17T20:50:41.415Z,97551.41
2023-03-17T20:53:08.793Z,97547.84
2023-03-17T20:55:36.451Z,97537.69
2023-03-17T20:58:03.985Z,97527.78
2023-03-17T21:00:31.968Z,97539.66
2023-03-17T21:03:00.974Z,97542.13
2023-03-17T21:05:28.528Z,97519.09
2023-03-17T21:07:56.709Z,97531.09
2023-03-17T21:10:23.838Z,97533.69
2023-03-17T21:12:50.842Z,97529.19
2023-03-17T21:15:18.393Z,97530.72
2023-03-17T21:17:45.293Z,97523.47
2023-03-17T21:20:12.720Z,97519.19
2023-03-17T21:22:40.488Z,97527.03
2023-03-17T21:25:08.956Z,97538.47
2023-03-17T21:27:37.874Z,97527.56
2023-03-17T21:30:12.256Z,97523.84
2023-03-17T21:32:40.519Z,97527.19
2023-03-17T21:35:08.624Z,97521.91
2023-03-17T21:37:35.897Z,97529.28
2023-03-17T21:40:06.983Z,97525.78
2023-03-17T21:42:34.541Z,97519.00
2023-03-17T21:45:01.494Z,97510.53
2023-03-17T21:47:30.119Z,97499.00
2023-03-17T21:49:58.044Z,97506.56
2023-03-17T21:52:26.202Z,97513.53
2023-03-17T21:54:53.353Z,97502.38
2023-03-17T21:57:20.516Z,97507.72
2023-03-17T21:59:48.137Z,97505.53
2023-03-17T22:02:18.376Z,97447.22
2023-03-17T22:04:46.961Z,97495.81
2023-03-17T22:07:14.115Z,97504.03
2023-03-17T22:09:41.835Z,97504.78
2023-03-17T22:12:09.310Z,97494.41
2023-03-17T22:14:36.518Z,97500.66
2023-03-17T22:17:05.392Z,97494.63
2023-03-17T22:19:33.450Z,97485.00
2023-03-17T22:22:00.411Z,97507.09
2023-03-17T22:24:27.515Z,97508.81
2023-03-17T22:26:55.788Z,97499.41
2023-03-17T22:29:22.784Z,97494.41
2023-03-17T22:31:49.814Z,97506.38
2023-03-17T22:34:17.417Z,97502.03
2023-03-17T22:36:44.330Z,97492.59
2023-03-17T22:39:11.952Z,97502.31
2023-03-17T22:41:39.423Z,97500.72
2023-03-17T22:44:09.116Z,97502.47
2023-03-17T22:46:37.816Z,97497.41
2023-03-17T22:49:06.018Z,97495.28
2023-03-17T22:51:32.912Z,97500.50
2023-03-17T22:54:00.218Z,97491.94
2023-03-17T22:56:27.618Z,97505.34
2023-03-17T22:58:55.789Z,97503.78
2023-03-17T23:01:25.722Z,97493.97
2023-03-17T23:03:54.417Z,97495.91
2023-03-17T23:06:22.101Z,97496.72
2023-03-17T23:08:49.355Z,97501.72
2023-03-17T23:11:19.865Z,97501.63
2023-03-17T23:13:48.000Z,97504.25
2023-03-17T23:16:15.550Z,97502.44
2023-03-17T23:18:44.701Z,97488.94
2023-03-17T23:21:40.025Z,97488.81
2023-03-17T23:24:08.592Z,97507.22
2023-03-17T23:26:37.124Z,97481.78
2023-03-17T23:29:07.032Z,97496.97
2023-03-17T23:31:34.578Z,97503.66
2023-03-17T23:34:01.456Z,97495.97
2023-03-17T23:36:28.483Z,97496.84
2023-03-17T23:38:55.435Z,97496.97
2023-03-17T23:41:22.768Z,97476.69
2023-03-17T23:43:49.929Z,97500.47
2023-03-17T23:46:17.383Z,97498.78
2023-03-17T23:48:45.004Z,97454.66
2023-03-17T23:51:14.380Z,97494.53
2023-03-17T23:53:41.867Z,97492.34
2023-03-17T23:56:11.329Z,97480.28
2023-03-17T23:58:39.005Z,97489.75
